DACKL LEBB-ELLX
Flight info
| Callsign | DACKL |
|---|---|
| Flight time | N/A |
| Altitude | 34000 |
| Route | SSN DCT LMG DCT AVD DCT TRO DCT MMD |
| Aircraft | B737/M-SDE2E3FGHIRWXY/LB1 |
Departure
| Time | N/A |
|---|---|
| Airport | Bilbao Airport (LEBB) |
Arrival
| Time | 2026-04-30 18:35 |
|---|---|
| Airport | Luxembourg-Findel International Airport (ELLX) |
| Time | Latitude | Longitude | Altitude | Speed | Heading |
|---|---|---|---|---|---|
| 2026-04-30 17:39 | 45.34008 | 0.26727 | 34232 ft | 463 kts | 47° |
| 2026-04-30 17:41 | 45.51034 | 0.53562 | 37382 ft | 451 kts | 48° |
| 2026-04-30 17:42 | 45.55216 | 0.60220 | 38019 ft | 450 kts | 48° |
| 2026-04-30 17:42 | 45.61550 | 0.70333 | 38135 ft | 464 kts | 48° |
| 2026-04-30 17:43 | 45.65856 | 0.77231 | 38130 ft | 462 kts | 48° |
| 2026-04-30 17:44 | 45.78595 | 0.97735 | 38151 ft | 458 kts | 49° |
| 2026-04-30 17:47 | 45.99378 | 1.24933 | 38142 ft | 424 kts | 41° |
| 2026-04-30 17:48 | 46.14865 | 1.44561 | 38148 ft | 436 kts | 41° |
| 2026-04-30 17:49 | 46.24235 | 1.56512 | 38142 ft | 459 kts | 42° |
| 2026-04-30 17:50 | 46.33803 | 1.68770 | 38137 ft | 458 kts | 42° |
| 2026-04-30 17:52 | 46.47221 | 1.86064 | 38141 ft | 453 kts | 42° |
| 2026-04-30 17:54 | 46.68171 | 2.13307 | 38135 ft | 447 kts | 43° |
| 2026-04-30 17:56 | 46.86686 | 2.37633 | 38117 ft | 450 kts | 43° |
| 2026-04-30 17:58 | 47.00634 | 2.56116 | 38104 ft | 452 kts | 43° |
| 2026-04-30 18:00 | 47.20380 | 2.78906 | 38106 ft | 451 kts | 37° |
| 2026-04-30 18:01 | 47.32947 | 2.92641 | 38105 ft | 449 kts | 38° |
| 2026-04-30 18:02 | 47.47912 | 3.09159 | 38118 ft | 447 kts | 38° |
| 2026-04-30 18:04 | 47.62814 | 3.25723 | 38110 ft | 446 kts | 38° |
| 2026-04-30 18:06 | 47.82596 | 3.47902 | 38121 ft | 445 kts | 38° |
| 2026-04-30 18:08 | 47.99833 | 3.67402 | 38125 ft | 444 kts | 38° |
| 2026-04-30 18:10 | 48.19407 | 3.89754 | 38155 ft | 441 kts | 39° |
| 2026-04-30 18:11 | 48.36963 | 4.08145 | 38158 ft | 439 kts | 35° |
| 2026-04-30 18:13 | 48.49677 | 4.20775 | 38055 ft | 436 kts | 36° |
| 2026-04-30 18:13 | 48.56435 | 4.27564 | 36537 ft | 438 kts | 36° |
| 2026-04-30 18:14 | 48.62300 | 4.33469 | 35083 ft | 433 kts | 36° |
| 2026-04-30 18:15 | 48.69773 | 4.41018 | 33215 ft | 425 kts | 36° |
| 2026-04-30 18:15 | 48.77026 | 4.48370 | 31658 ft | 412 kts | 37° |
| 2026-04-30 18:16 | 48.81735 | 4.53158 | 30660 ft | 404 kts | 37° |
| 2026-04-30 18:16 | 48.86355 | 4.57867 | 29597 ft | 397 kts | 37° |
| 2026-04-30 18:17 | 48.88649 | 4.60207 | 29053 ft | 393 kts | 37° |
| 2026-04-30 18:17 | 48.90892 | 4.62500 | 28504 ft | 389 kts | 37° |
| 2026-04-30 18:17 | 48.95339 | 4.67053 | 27453 ft | 381 kts | 37° |
| 2026-04-30 18:18 | 48.97539 | 4.69309 | 26935 ft | 378 kts | 37° |
| 2026-04-30 18:18 | 48.99690 | 4.71517 | 26438 ft | 374 kts | 37° |
| 2026-04-30 18:18 | 49.01831 | 4.73717 | 25941 ft | 371 kts | 37° |
| 2026-04-30 18:18 | 49.03965 | 4.75912 | 25456 ft | 367 kts | 37° |
| 2026-04-30 18:19 | 49.06084 | 4.78094 | 24972 ft | 364 kts | 37° |
| 2026-04-30 18:19 | 49.08162 | 4.80236 | 24498 ft | 361 kts | 38° |
| 2026-04-30 18:19 | 49.10244 | 4.82385 | 24035 ft | 358 kts | 38° |
| 2026-04-30 18:19 | 49.12282 | 4.84490 | 23540 ft | 355 kts | 38° |
| 2026-04-30 18:20 | 49.14330 | 4.86609 | 22998 ft | 352 kts | 38° |
| 2026-04-30 18:20 | 49.16341 | 4.88690 | 22463 ft | 350 kts | 37° |
| 2026-04-30 18:20 | 49.18340 | 4.90762 | 21949 ft | 347 kts | 37° |
| 2026-04-30 18:20 | 49.20338 | 4.92835 | 21429 ft | 345 kts | 37° |
| 2026-04-30 18:21 | 49.22326 | 4.94899 | 20925 ft | 342 kts | 37° |
| 2026-04-30 18:21 | 49.24283 | 4.96933 | 20435 ft | 340 kts | 37° |
| 2026-04-30 18:21 | 49.26223 | 4.98951 | 19952 ft | 338 kts | 37° |
| 2026-04-30 18:21 | 49.28165 | 5.00973 | 19471 ft | 336 kts | 37° |
| 2026-04-30 18:22 | 49.30105 | 5.02995 | 18997 ft | 334 kts | 37° |
| 2026-04-30 18:22 | 49.33927 | 5.06984 | 18007 ft | 331 kts | 37° |
| 2026-04-30 18:22 | 49.35813 | 5.08957 | 17486 ft | 329 kts | 37° |
| 2026-04-30 18:23 | 49.37711 | 5.10942 | 16972 ft | 327 kts | 37° |
| 2026-04-30 18:23 | 49.39404 | 5.13240 | 16442 ft | 321 kts | 56° |
| 2026-04-30 18:23 | 49.40585 | 5.16073 | 15977 ft | 317 kts | 62° |
| 2026-04-30 18:23 | 49.41672 | 5.18989 | 15482 ft | 315 kts | 63° |
| 2026-04-30 18:24 | 49.43815 | 5.24852 | 14513 ft | 311 kts | 63° |
| 2026-04-30 18:24 | 49.44872 | 5.27722 | 14063 ft | 310 kts | 63° |
| 2026-04-30 18:24 | 49.45924 | 5.30560 | 13906 ft | 296 kts | 62° |
| 2026-04-30 18:25 | 49.46926 | 5.33256 | 13530 ft | 292 kts | 63° |
| 2026-04-30 18:25 | 49.48937 | 5.38666 | 12594 ft | 290 kts | 63° |
| 2026-04-30 18:25 | 49.49941 | 5.41367 | 12139 ft | 288 kts | 63° |
| 2026-04-30 18:26 | 49.51924 | 5.46700 | 11267 ft | 286 kts | 62° |
| 2026-04-30 18:26 | 49.52905 | 5.49339 | 10852 ft | 284 kts | 63° |
| 2026-04-30 18:26 | 49.53880 | 5.51969 | 10411 ft | 284 kts | 63° |
| 2026-04-30 18:27 | 49.55508 | 5.57416 | 9551 ft | 277 kts | 78° |
| 2026-04-30 18:27 | 49.55944 | 5.60270 | 9173 ft | 272 kts | 79° |
| 2026-04-30 18:28 | 49.56791 | 5.65899 | 8037 ft | 269 kts | 79° |
| 2026-04-30 18:28 | 49.57236 | 5.68712 | 7533 ft | 269 kts | 79° |
| 2026-04-30 18:28 | 49.57893 | 5.74222 | 6802 ft | 260 kts | 97° |
| 2026-04-30 18:29 | 49.57505 | 5.76924 | 6453 ft | 254 kts | 108° |
| 2026-04-30 18:29 | 49.56054 | 5.84149 | 6027 ft | 221 kts | 108° |
| 2026-04-30 18:30 | 49.55317 | 5.87878 | 5586 ft | 218 kts | 108° |
| 2026-04-30 18:30 | 49.54307 | 5.93017 | 5019 ft | 210 kts | 109° |
| 2026-04-30 18:31 | 49.53896 | 5.95114 | 4918 ft | 198 kts | 108° |
| 2026-04-30 18:31 | 49.54384 | 5.99073 | 4437 ft | 196 kts | 66° |
| 2026-04-30 18:32 | 49.55738 | 6.02659 | 3803 ft | 189 kts | 65° |
| 2026-04-30 18:32 | 49.56387 | 6.04384 | 3506 ft | 187 kts | 65° |
| 2026-04-30 18:32 | 49.57636 | 6.07620 | 3139 ft | 170 kts | 61° |
| 2026-04-30 18:33 | 49.58304 | 6.09156 | 2769 ft | 174 kts | 64° |
| 2026-04-30 18:33 | 49.59424 | 6.12389 | 2143 ft | 163 kts | 65° |
| 2026-04-30 18:33 | 49.59957 | 6.13849 | 1847 ft | 152 kts | 65° |
| 2026-04-30 18:34 | 49.60446 | 6.15220 | 1633 ft | 140 kts | 64° |
| 2026-04-30 18:34 | 49.61327 | 6.17612 | 1372 ft | 118 kts | 62° |
| 2026-04-30 18:34 | 49.61731 | 6.18666 | 1219 ft | 109 kts | 63° |
| 2026-04-30 18:35 | 49.61973 | 6.19334 | 1175 ft | 101 kts | 62° |
| 2026-04-30 18:35 | 49.62259 | 6.20109 | 1218 ft | 63 kts | 60° |
| 2026-04-30 18:35 | 49.62396 | 6.20476 | 1228 ft | 14 kts | 59° |
| 2026-04-30 18:36 | 49.62561 | 6.20631 | 1238 ft | 10 kts | 22° |
| 2026-04-30 18:36 | 49.62626 | 6.20672 | 1243 ft | 10 kts | 22° |
| 2026-04-30 18:36 | 49.62701 | 6.20716 | 1237 ft | 0 kts | 20° |
| 2026-04-30 18:38 | 49.62713 | 6.20722 | 1244 ft | 4 kts | 20° |
| 2026-04-30 18:39 | 49.62761 | 6.20750 | 1238 ft | 9 kts | 20° |
| 2026-04-30 18:39 | 49.62815 | 6.20809 | 1241 ft | 11 kts | 54° |
| 2026-04-30 18:39 | 49.62856 | 6.20935 | 1234 ft | 17 kts | 65° |
| 2026-04-30 18:39 | 49.62912 | 6.21111 | 1232 ft | 19 kts | 64° |
| 2026-04-30 18:40 | 49.62967 | 6.21291 | 1230 ft | 18 kts | 64° |
| 2026-04-30 18:40 | 49.63022 | 6.21470 | 1226 ft | 18 kts | 64° |
| 2026-04-30 18:40 | 49.63077 | 6.21645 | 1225 ft | 18 kts | 64° |
| 2026-04-30 18:40 | 49.63115 | 6.21758 | 1225 ft | 7 kts | 49° |
| 2026-04-30 18:41 | 49.63131 | 6.21767 | 1226 ft | 0 kts | 7° |
| 2026-04-30 18:41 | 49.63142 | 6.21765 | 1226 ft | 4 kts | 349° |
| 2026-04-30 18:41 | 49.63171 | 6.21754 | 1227 ft | 5 kts | 1° |
| 2026-04-30 18:41 | 49.63197 | 6.21794 | 1227 ft | 6 kts | 56° |
| 2026-04-30 18:42 | 49.63202 | 6.21805 | 1227 ft | 0 kts | 60° |